createdAt,value
2019-01-21T00:02:18.887Z,5.55
2019-01-21T00:04:46.938Z,5.45
2019-01-21T00:07:14.924Z,5.10
2019-01-21T00:09:42.941Z,5.28
2019-01-21T00:12:10.939Z,5.65
2019-01-21T00:14:38.935Z,5.65
2019-01-21T00:17:06.949Z,6.05
2019-01-21T00:19:35.250Z,6.22
2019-01-21T00:22:03.459Z,5.78
2019-01-21T00:24:31.440Z,6.17
2019-01-21T00:26:59.445Z,5.45
2019-01-21T00:29:27.494Z,6.25
2019-01-21T00:31:56.256Z,5.97
2019-01-21T00:34:26.578Z,5.90
2019-01-21T00:36:54.591Z,5.80
2019-01-21T00:39:22.634Z,5.72
2019-01-21T00:41:50.627Z,5.22
2019-01-21T00:44:18.665Z,5.65
2019-01-21T00:46:46.701Z,5.92
2019-01-21T00:49:15.107Z,5.55
2019-01-21T00:51:43.156Z,5.78
2019-01-21T00:54:11.302Z,6.67
2019-01-21T00:56:39.323Z,5.83
2019-01-21T00:59:07.456Z,6.12
2019-01-21T01:01:37.297Z,6.20
2019-01-21T01:04:05.294Z,5.85
2019-01-21T01:06:33.335Z,5.80
2019-01-21T01:09:01.353Z,6.47
2019-01-21T01:11:30.767Z,5.83
2019-01-21T01:13:58.795Z,5.95
2019-01-21T01:16:27.968Z,5.83
2019-01-21T01:18:56.469Z,5.83
2019-01-21T01:21:24.509Z,6.20
2019-01-21T01:23:52.503Z,6.28
2019-01-21T01:26:20.657Z,5.58
2019-01-21T01:28:50.836Z,6.03
2019-01-21T01:31:18.936Z,5.75
2019-01-21T01:33:48.030Z,6.17
2019-01-21T01:36:16.062Z,6.25
2019-01-21T01:38:44.112Z,5.40
2019-01-21T01:41:12.111Z,6.08
2019-01-21T01:43:40.209Z,6.20
2019-01-21T01:46:08.238Z,5.80
2019-01-21T01:48:36.257Z,5.83
2019-01-21T01:51:04.281Z,6.45
2019-01-21T01:53:33.175Z,5.37
2019-01-21T01:56:01.206Z,6.00
2019-01-21T01:58:29.331Z,6.35
2019-01-21T02:00:57.369Z,5.58
2019-01-21T02:03:25.374Z,6.42
2019-01-21T02:05:53.548Z,6.33
2019-01-21T02:08:21.703Z,6.37
2019-01-21T02:10:49.717Z,5.67
2019-01-21T02:13:17.819Z,5.60
2019-01-21T02:15:45.831Z,7.47
2019-01-21T02:18:13.915Z,5.85
2019-01-21T02:20:44.610Z,6.35
2019-01-21T02:23:16.342Z,6.42
2019-01-21T02:25:52.616Z,6.30
2019-01-21T02:29:17.000Z,6.35
2019-01-21T02:32:20.931Z,5.85
2019-01-21T02:36:08.430Z,5.72
2019-01-21T02:39:30.267Z,5.30
2019-01-21T02:42:14.208Z,5.45
2019-01-21T02:45:37.914Z,5.60
2019-01-21T02:49:10.564Z,5.08
2019-01-21T02:52:37.613Z,5.67
2019-01-21T02:56:05.379Z,5.70
2019-01-21T02:59:43.904Z,5.55
2019-01-21T03:02:57.486Z,4.80
2019-01-21T03:06:13.135Z,5.20
2019-01-21T03:09:44.196Z,5.75
2019-01-21T03:12:57.594Z,5.12
2019-01-21T03:16:24.830Z,5.15
2019-01-21T03:20:00.805Z,4.83
2019-01-21T03:23:17.257Z,4.95
2019-01-21T03:26:26.089Z,5.08
2019-01-21T03:30:07.391Z,4.75
2019-01-21T03:33:36.074Z,4.75
2019-01-21T03:36:18.617Z,4.50
2019-01-21T03:39:48.843Z,5.15
2019-01-21T03:42:51.733Z,5.15
2019-01-21T03:46:22.481Z,4.72
2019-01-21T03:49:07.789Z,4.30
2019-01-21T03:52:20.330Z,5.35
2019-01-21T03:54:58.065Z,5.03
2019-01-21T03:58:32.908Z,5.30
2019-01-21T04:01:41.747Z,5.30
2019-01-21T04:05:37.640Z,5.90
2019-01-21T04:08:55.972Z,4.70
2019-01-21T04:12:01.940Z,4.33
2019-01-21T04:15:07.275Z,5.00
2019-01-21T04:18:35.003Z,4.80
2019-01-21T04:22:19.676Z,5.12
2019-01-21T04:25:21.840Z,5.28
2019-01-21T04:28:41.275Z,5.33
2019-01-21T04:32:07.366Z,5.33
2019-01-21T04:35:46.094Z,5.15
2019-01-21T04:39:42.669Z,4.62
2019-01-21T04:42:59.861Z,3.87
2019-01-21T04:46:32.107Z,4.40
2019-01-21T04:49:37.060Z,5.00
2019-01-21T04:52:37.783Z,4.75
2019-01-21T04:55:48.473Z,4.72
2019-01-21T04:59:20.097Z,4.22
2019-01-21T05:02:32.500Z,4.72
2019-01-21T05:06:09.070Z,4.20
2019-01-21T05:09:06.813Z,4.62
2019-01-21T05:12:51.071Z,4.45
2019-01-21T05:16:05.940Z,4.62
2019-01-21T05:19:33.293Z,4.60
2019-01-21T05:22:34.947Z,4.25
2019-01-21T05:26:10.882Z,4.60
2019-01-21T05:29:24.124Z,4.42
2019-01-21T05:33:17.824Z,4.92
2019-01-21T05:36:35.119Z,4.33
2019-01-21T05:39:54.491Z,5.05
2019-01-21T05:43:06.910Z,4.53
2019-01-21T05:46:02.377Z,4.37
2019-01-21T05:49:33.281Z,4.40
2019-01-21T05:53:00.620Z,4.55
2019-01-21T05:56:10.218Z,4.67
2019-01-21T05:59:38.819Z,4.20
2019-01-21T06:02:52.420Z,4.25
2019-01-21T06:06:33.540Z,4.65
2019-01-21T06:09:40.805Z,4.92
2019-01-21T06:13:07.666Z,4.85
2019-01-21T06:16:37.872Z,4.62
2019-01-21T06:20:06.929Z,4.70
2019-01-21T06:24:00.689Z,4.58
2019-01-21T06:27:20.649Z,3.90
2019-01-21T06:30:47.330Z,4.87
2019-01-21T06:34:53.105Z,3.90
2019-01-21T06:38:02.110Z,3.52
2019-01-21T06:41:28.491Z,4.30
2019-01-21T06:45:06.561Z,4.00
2019-01-21T06:48:48.770Z,4.50
2019-01-21T06:52:05.463Z,3.98
2019-01-21T06:55:36.143Z,3.98
2019-01-21T06:59:01.116Z,4.00
2019-01-21T07:02:00.061Z,4.22
2019-01-21T07:05:46.187Z,4.78
2019-01-21T07:09:07.608Z,4.45
2019-01-21T07:12:53.733Z,4.58
2019-01-21T07:15:56.533Z,3.90
2019-01-21T07:19:18.521Z,3.87
2019-01-21T07:22:30.560Z,3.90
2019-01-21T07:25:51.598Z,4.80
2019-01-21T07:29:18.498Z,4.40
2019-01-21T07:32:39.356Z,4.03
2019-01-21T07:36:17.865Z,4.35
2019-01-21T07:39:48.012Z,3.98
2019-01-21T07:43:06.428Z,3.90
2019-01-21T07:46:30.002Z,4.72
2019-01-21T07:49:29.528Z,4.30
2019-01-21T07:53:21.564Z,4.55
2019-01-21T07:57:05.713Z,4.37
2019-01-21T08:00:13.647Z,3.85
2019-01-21T08:03:52.914Z,4.30
2019-01-21T08:07:18.635Z,4.47
2019-01-21T08:10:34.637Z,4.25
2019-01-21T08:13:22.891Z,4.70
2019-01-21T08:16:58.460Z,4.83
2019-01-21T08:20:02.922Z,4.15
2019-01-21T08:23:30.242Z,5.03
2019-01-21T08:26:44.860Z,6.08
2019-01-21T08:30:05.754Z,5.22
2019-01-21T08:33:39.627Z,4.92
2019-01-21T08:36:46.817Z,6.72
2019-01-21T08:40:15.407Z,6.67
2019-01-21T08:43:28.299Z,5.20
2019-01-21T08:47:03.294Z,5.40
2019-01-21T08:50:44.016Z,5.60
2019-01-21T08:53:52.986Z,4.78
2019-01-21T08:57:30.974Z,4.47
2019-01-21T09:00:25.640Z,4.17
2019-01-21T09:03:36.597Z,4.45
2019-01-21T09:07:27.591Z,4.25
2019-01-21T09:10:52.389Z,3.77
2019-01-21T09:14:36.652Z,4.62
2019-01-21T09:17:56.593Z,3.98
2019-01-21T09:21:41.751Z,4.17
2019-01-21T09:25:25.211Z,3.65
2019-01-21T09:28:56.270Z,4.70
2019-01-21T09:32:23.127Z,4.20
2019-01-21T09:36:01.666Z,4.08
2019-01-21T09:39:18.856Z,3.70
2019-01-21T09:42:14.413Z,3.75
2019-01-21T09:45:19.995Z,4.42
2019-01-21T09:47:46.595Z,4.30
2019-01-21T09:50:15.475Z,5.08
2019-01-21T09:52:43.786Z,4.97
2019-01-21T09:55:15.010Z,4.92
2019-01-21T09:57:44.606Z,5.03
2019-01-21T10:00:17.419Z,5.30
2019-01-21T10:02:50.353Z,4.87
2019-01-21T10:05:20.072Z,4.95
2019-01-21T10:08:46.560Z,4.87
2019-01-21T10:12:14.789Z,4.45
2019-01-21T10:15:20.864Z,4.35
2019-01-21T10:18:50.705Z,4.45
2019-01-21T10:22:10.042Z,3.85
2019-01-21T10:25:54.705Z,4.40
2019-01-21T10:28:48.181Z,4.25
2019-01-21T10:32:11.595Z,4.45
2019-01-21T10:36:17.350Z,4.50
2019-01-21T10:39:57.726Z,3.90
2019-01-21T10:43:11.185Z,3.98
2019-01-21T10:46:39.266Z,4.72
2019-01-21T10:50:10.407Z,4.83
2019-01-21T10:53:45.209Z,4.15
2019-01-21T10:57:14.139Z,4.10
2019-01-21T11:00:26.140Z,4.03
2019-01-21T11:03:22.869Z,4.35
2019-01-21T11:07:11.719Z,4.72
2019-01-21T11:10:16.767Z,4.58
2019-01-21T11:13:40.955Z,5.47
2019-01-21T11:16:22.293Z,4.83
2019-01-21T11:19:41.514Z,4.45
2019-01-21T11:22:43.167Z,4.80
2019-01-21T11:25:57.505Z,5.30
2019-01-21T11:28:42.488Z,4.78
2019-01-21T11:32:03.167Z,5.42
2019-01-21T11:35:12.561Z,5.05
2019-01-21T11:38:39.084Z,5.12
2019-01-21T11:41:27.834Z,5.22
2019-01-21T11:44:39.743Z,5.03
2019-01-21T11:47:42.674Z,4.85
2019-01-21T11:51:27.056Z,5.15
2019-01-21T11:54:33.103Z,4.62
2019-01-21T11:57:56.077Z,5.33
2019-01-21T12:01:02.874Z,5.22
2019-01-21T12:04:16.804Z,5.15
2019-01-21T12:07:47.006Z,4.97
2019-01-21T12:10:58.308Z,4.80
2019-01-21T12:14:37.160Z,5.00
2019-01-21T12:17:52.641Z,4.50
2019-01-21T12:21:34.944Z,4.37
2019-01-21T12:24:29.545Z,4.75
2019-01-21T12:27:39.402Z,6.47
2019-01-21T12:30:37.339Z,5.62
2019-01-21T12:34:09.873Z,5.50
2019-01-21T12:37:22.006Z,5.47
2019-01-21T12:40:20.864Z,5.80
2019-01-21T12:44:08.162Z,5.33
2019-01-21T12:46:45.939Z,5.90
2019-01-21T12:50:12.540Z,6.12
2019-01-21T12:53:17.493Z,5.08
2019-01-21T12:56:42.101Z,5.60
2019-01-21T12:59:49.246Z,5.33
2019-01-21T13:02:31.907Z,5.58
2019-01-21T13:06:10.149Z,6.55
2019-01-21T13:08:59.894Z,4.92
2019-01-21T13:12:15.892Z,6.42
2019-01-21T13:15:26.204Z,6.15
2019-01-21T13:18:50.541Z,5.92
2019-01-21T13:22:53.313Z,6.15
2019-01-21T13:26:32.738Z,5.08
2019-01-21T13:30:20.737Z,5.42
2019-01-21T13:34:02.177Z,6.60
2019-01-21T13:37:15.679Z,5.92
2019-01-21T13:40:39.843Z,6.12
2019-01-21T13:43:59.239Z,5.37
2019-01-21T13:47:37.802Z,6.05
2019-01-21T13:50:17.576Z,6.05
2019-01-21T13:53:54.866Z,6.58
2019-01-21T13:57:29.125Z,5.97
2019-01-21T14:01:16.209Z,6.22
2019-01-21T14:04:27.270Z,6.10
2019-01-21T14:07:49.744Z,6.50
2019-01-21T14:11:03.386Z,6.10
2019-01-21T14:14:06.148Z,6.95
2019-01-21T14:17:34.469Z,6.33
2019-01-21T14:20:57.593Z,6.05
2019-01-21T14:23:38.639Z,6.03
2019-01-21T14:26:51.001Z,6.50
2019-01-21T14:29:59.645Z,7.20
2019-01-21T14:33:18.397Z,6.78
2019-01-21T14:36:40.735Z,6.67
2019-01-21T14:39:43.812Z,6.90
2019-01-21T14:43:23.754Z,6.12
2019-01-21T14:46:40.555Z,6.78
2019-01-21T14:49:54.722Z,6.87
2019-01-21T14:53:20.026Z,6.75
2019-01-21T14:56:28.785Z,7.33
2019-01-21T15:00:10.640Z,6.95
2019-01-21T15:03:57.963Z,6.80
2019-01-21T15:07:16.764Z,6.62
2019-01-21T15:10:43.707Z,6.62
2019-01-21T15:14:02.828Z,6.47
2019-01-21T15:17:02.933Z,6.75
2019-01-21T15:19:50.527Z,7.37
2019-01-21T15:23:09.590Z,6.67
2019-01-21T15:26:18.709Z,6.90
2019-01-21T15:29:35.176Z,7.10
2019-01-21T15:33:03.084Z,6.92
2019-01-21T15:36:40.117Z,8.03
2019-01-21T15:39:37.273Z,7.25
2019-01-21T15:42:46.294Z,7.25
2019-01-21T15:46:23.689Z,6.47
2019-01-21T15:49:35.631Z,6.42
2019-01-21T15:52:39.547Z,5.78
2019-01-21T15:56:00.713Z,6.55
2019-01-21T15:59:25.566Z,6.58
2019-01-21T16:02:27.853Z,6.62
2019-01-21T16:06:15.459Z,5.65
2019-01-21T16:09:30.667Z,5.80
2019-01-21T16:12:45.866Z,6.97
2019-01-21T16:15:53.026Z,6.28
2019-01-21T16:18:48.893Z,6.62
2019-01-21T16:22:30.295Z,7.00
2019-01-21T16:25:46.084Z,5.80
2019-01-21T16:29:20.046Z,6.10
2019-01-21T16:32:15.144Z,6.78
2019-01-21T16:35:35.484Z,6.42
2019-01-21T16:38:33.679Z,6.70
2019-01-21T16:41:51.276Z,6.80
2019-01-21T16:44:19.450Z,6.53
2019-01-21T16:46:47.654Z,6.50
2019-01-21T16:49:16.355Z,7.85
2019-01-21T16:51:44.830Z,7.30
2019-01-21T16:54:14.398Z,6.87
2019-01-21T16:56:42.847Z,7.47
2019-01-21T16:59:11.248Z,7.08
2019-01-21T17:01:39.185Z,6.72
2019-01-21T17:04:07.286Z,6.75
2019-01-21T17:06:35.448Z,7.50
2019-01-21T17:09:09.358Z,6.33
2019-01-21T17:11:40.561Z,7.42
2019-01-21T17:14:10.911Z,6.65
2019-01-21T17:16:40.820Z,7.12
2019-01-21T17:19:35.809Z,6.83
2019-01-21T17:22:04.241Z,6.58
2019-01-21T17:24:32.355Z,6.60
2019-01-21T17:27:00.377Z,5.95
2019-01-21T17:29:28.814Z,6.50
2019-01-21T17:31:56.871Z,8.33
2019-01-21T17:34:26.506Z,7.85
2019-01-21T17:36:54.662Z,7.33
2019-01-21T17:39:24.327Z,7.12
2019-01-21T17:41:52.635Z,7.28
2019-01-21T17:44:20.689Z,7.90
2019-01-21T17:46:48.957Z,7.85
2019-01-21T17:49:17.008Z,6.87
2019-01-21T17:51:45.000Z,7.95
2019-01-21T17:54:13.334Z,7.28
2019-01-21T17:56:42.622Z,7.75
2019-01-21T17:59:10.705Z,7.67
2019-01-21T18:01:41.261Z,7.33
2019-01-21T18:04:10.578Z,6.83
2019-01-21T18:06:38.726Z,7.53
2019-01-21T18:09:09.031Z,7.30
2019-01-21T18:11:41.384Z,7.95
2019-01-21T18:14:08.113Z,8.18
2019-01-21T18:16:37.278Z,8.48
2019-01-21T18:19:05.353Z,8.40
2019-01-21T18:21:40.151Z,8.40
2019-01-21T18:24:04.776Z,8.80
2019-01-21T18:26:32.861Z,8.23
2019-01-21T18:29:00.971Z,9.10
2019-01-21T18:31:29.043Z,8.25
2019-01-21T18:33:57.317Z,9.83
2019-01-21T18:36:25.320Z,11.63
2019-01-21T18:38:53.390Z,10.70
2019-01-21T18:41:21.429Z,10.70
2019-01-21T18:43:51.741Z,10.82
2019-01-21T18:46:20.056Z,11.20
2019-01-21T18:48:49.388Z,10.72
2019-01-21T18:51:17.851Z,10.58
2019-01-21T18:53:45.929Z,11.25
2019-01-21T18:56:14.128Z,10.65
2019-01-21T18:58:42.150Z,10.20
2019-01-21T19:01:10.782Z,10.15
2019-01-21T19:03:38.950Z,9.78
2019-01-21T19:06:07.015Z,10.13
2019-01-21T19:08:35.222Z,10.82
2019-01-21T19:11:03.258Z,9.73
2019-01-21T19:13:31.491Z,9.23
2019-01-21T19:15:59.591Z,8.93
2019-01-21T19:18:27.849Z,9.15
2019-01-21T19:20:56.025Z,8.65
2019-01-21T19:23:25.427Z,8.78
2019-01-21T19:25:54.676Z,9.05
2019-01-21T19:28:22.785Z,8.55
2019-01-21T19:30:50.894Z,8.85
2019-01-21T19:33:19.279Z,8.80
2019-01-21T19:35:48.578Z,9.38
2019-01-21T19:38:16.570Z,9.93
2019-01-21T19:40:44.683Z,9.05
2019-01-21T19:43:12.857Z,8.30
2019-01-21T19:45:43.275Z,7.08
2019-01-21T19:48:11.621Z,7.15
2019-01-21T19:50:39.659Z,7.47
2019-01-21T19:53:07.646Z,6.80
2019-01-21T19:55:41.869Z,7.90
2019-01-21T19:58:11.513Z,7.45
2019-01-21T20:00:41.085Z,7.97
2019-01-21T20:03:09.621Z,7.10
2019-01-21T20:05:38.059Z,7.35
2019-01-21T20:08:07.764Z,7.08
2019-01-21T20:10:37.414Z,6.87
2019-01-21T20:13:05.479Z,6.15
2019-01-21T20:15:33.699Z,6.33
2019-01-21T20:18:01.939Z,6.17
2019-01-21T20:20:34.166Z,6.12
2019-01-21T20:23:02.787Z,6.65
2019-01-21T20:25:30.853Z,6.42
2019-01-21T20:27:58.984Z,6.05
2019-01-21T20:30:27.051Z,5.92
2019-01-21T20:32:55.132Z,6.53
2019-01-21T20:35:24.536Z,5.62
2019-01-21T20:37:53.850Z,5.53
2019-01-21T20:40:24.788Z,7.80
2019-01-21T20:42:53.077Z,8.00
2019-01-21T20:45:21.519Z,7.83
2019-01-21T20:47:50.030Z,8.30
2019-01-21T20:50:24.864Z,9.10
2019-01-21T20:52:54.089Z,8.05
2019-01-21T20:55:22.345Z,7.60
2019-01-21T20:57:51.775Z,7.10
2019-01-21T21:00:22.836Z,7.15
2019-01-21T21:02:51.821Z,6.72
2019-01-21T21:05:19.819Z,6.95
2019-01-21T21:07:49.461Z,6.60
2019-01-21T21:10:17.956Z,8.73
2019-01-21T21:12:46.146Z,7.08
2019-01-21T21:15:18.367Z,7.60
2019-01-21T21:17:46.533Z,7.65
2019-01-21T21:20:15.256Z,6.42
2019-01-21T21:22:43.533Z,7.33
2019-01-21T21:25:13.819Z,7.37
2019-01-21T21:27:41.842Z,6.83
2019-01-21T21:30:16.343Z,6.60
2019-01-21T21:32:44.417Z,6.10
2019-01-21T21:35:14.730Z,6.42
2019-01-21T21:37:42.869Z,5.78
2019-01-21T21:40:14.282Z,5.75
2019-01-21T21:42:44.662Z,5.35
2019-01-21T21:45:14.737Z,5.08
2019-01-21T21:47:44.366Z,5.95
2019-01-21T21:50:16.564Z,6.47
2019-01-21T21:52:44.901Z,5.92
2019-01-21T21:55:13.225Z,6.92
2019-01-21T21:57:41.302Z,6.45
2019-01-21T22:00:15.094Z,7.15
2019-01-21T22:02:44.962Z,6.40
2019-01-21T22:05:13.458Z,6.35
2019-01-21T22:07:42.601Z,6.25
2019-01-21T22:10:13.626Z,5.78
2019-01-21T22:12:42.007Z,6.33
2019-01-21T22:15:13.383Z,6.03
2019-01-21T22:17:41.741Z,6.10
2019-01-21T22:20:14.033Z,5.72
2019-01-21T22:22:42.121Z,5.03
2019-01-21T22:25:10.164Z,5.70
2019-01-21T22:27:38.182Z,5.28
2019-01-21T22:30:10.274Z,4.80
2019-01-21T22:32:38.367Z,4.80
2019-01-21T22:35:06.405Z,4.75
2019-01-21T22:37:34.413Z,5.20
2019-01-21T22:40:03.887Z,5.00
2019-01-21T22:42:32.304Z,5.05
2019-01-21T22:45:00.325Z,5.67
2019-01-21T22:47:28.554Z,5.17
2019-01-21T22:49:56.459Z,5.97
2019-01-21T22:52:24.722Z,6.17
2019-01-21T22:54:52.705Z,5.92
2019-01-21T22:57:20.736Z,5.87
2019-01-21T22:59:49.111Z,5.45
2019-01-21T23:02:17.169Z,5.53
2019-01-21T23:04:45.141Z,4.47
2019-01-21T23:07:13.456Z,5.10
2019-01-21T23:09:41.448Z,5.28
2019-01-21T23:12:09.495Z,4.95
2019-01-21T23:14:38.143Z,5.35
2019-01-21T23:17:06.580Z,4.83
2019-01-21T23:19:34.573Z,5.15
2019-01-21T23:22:02.882Z,4.53
2019-01-21T23:24:30.909Z,4.70
2019-01-21T23:26:58.944Z,4.35
2019-01-21T23:29:27.806Z,4.60
2019-01-21T23:31:55.886Z,4.22
2019-01-21T23:34:23.934Z,5.05
2019-01-21T23:36:52.355Z,4.25
2019-01-21T23:39:21.586Z,3.92
2019-01-21T23:41:49.627Z,4.85
2019-01-21T23:44:17.681Z,4.53
2019-01-21T23:46:46.033Z,5.05
2019-01-21T23:49:15.087Z,4.87
2019-01-21T23:51:43.476Z,4.85
2019-01-21T23:54:11.490Z,4.65
2019-01-21T23:56:39.477Z,4.92
2019-01-21T23:59:09.572Z,4.87
